createdAt,value
2023-06-08T00:01:04.246Z,7.18
2023-06-08T00:03:34.806Z,8.45
2023-06-08T00:06:10.027Z,7.20
2023-06-08T00:08:41.441Z,7.22
2023-06-08T00:11:12.913Z,7.15
2023-06-08T00:13:43.436Z,6.85
2023-06-08T00:16:15.222Z,7.07
2023-06-08T00:18:46.823Z,7.80
2023-06-08T00:21:19.431Z,7.60
2023-06-08T00:23:49.872Z,6.95
2023-06-08T00:26:20.567Z,6.68
2023-06-08T00:28:51.685Z,6.32
2023-06-08T00:31:22.687Z,6.38
2023-06-08T00:33:53.266Z,5.80
2023-06-08T00:36:25.469Z,5.18
2023-06-08T00:38:56.054Z,5.82
2023-06-08T00:41:29.722Z,5.13
2023-06-08T00:44:00.760Z,4.90
2023-06-08T00:46:32.676Z,4.50
2023-06-08T00:49:04.245Z,4.85
2023-06-08T00:51:39.653Z,4.15
2023-06-08T00:54:12.198Z,4.78
2023-06-08T00:56:44.585Z,4.80
2023-06-08T00:59:16.508Z,5.25
2023-06-08T01:01:49.508Z,4.70
2023-06-08T01:04:20.172Z,4.43
2023-06-08T01:06:56.954Z,4.80
2023-06-08T01:09:33.331Z,4.97
2023-06-08T01:12:17.318Z,4.68
2023-06-08T01:14:58.661Z,5.13
2023-06-08T01:17:43.059Z,4.43
2023-06-08T01:20:36.928Z,4.88
2023-06-08T01:23:29.354Z,4.50
2023-06-08T01:26:02.768Z,4.78
2023-06-08T01:28:33.742Z,4.43
2023-06-08T01:31:04.925Z,4.57
2023-06-08T01:33:35.606Z,4.30
2023-06-08T01:36:12.401Z,4.00
2023-06-08T01:38:51.990Z,4.70
2023-06-08T01:41:28.485Z,4.78
2023-06-08T01:44:02.351Z,4.63
2023-06-08T01:46:34.671Z,4.40
2023-06-08T01:49:07.417Z,4.82
2023-06-08T01:51:38.474Z,4.30
2023-06-08T01:54:10.174Z,3.83
2023-06-08T01:56:42.397Z,4.83
2023-06-08T01:59:13.065Z,4.10
2023-06-08T02:01:43.591Z,4.27
2023-06-08T02:04:14.180Z,4.77
2023-06-08T02:06:44.791Z,3.90
2023-06-08T02:09:15.406Z,4.27
2023-06-08T02:11:47.654Z,3.80
2023-06-08T02:14:18.385Z,3.77
2023-06-08T02:16:49.409Z,3.90
2023-06-08T02:19:21.600Z,3.93
2023-06-08T02:21:52.153Z,4.00
2023-06-08T02:24:22.728Z,3.83
2023-06-08T02:26:56.757Z,4.27
2023-06-08T02:29:28.601Z,3.93
2023-06-08T02:31:59.022Z,3.90
2023-06-08T02:34:29.555Z,4.07
2023-06-08T02:37:00.022Z,3.27
2023-06-08T02:39:30.540Z,3.67
2023-06-08T02:42:03.322Z,4.00
2023-06-08T02:44:33.837Z,4.00
2023-06-08T02:47:04.428Z,3.60
2023-06-08T02:49:34.936Z,3.47
2023-06-08T02:52:05.564Z,3.30
2023-06-08T02:54:36.390Z,3.60
2023-06-08T02:57:09.108Z,3.40
2023-06-08T02:59:39.938Z,3.43
2023-06-08T03:02:10.511Z,3.40
2023-06-08T03:04:45.531Z,3.67
2023-06-08T03:07:17.445Z,3.73
2023-06-08T03:09:50.836Z,3.30
2023-06-08T03:12:23.200Z,3.53
2023-06-08T03:14:55.108Z,3.60
2023-06-08T03:17:26.571Z,3.90
2023-06-08T03:19:57.419Z,3.20
2023-06-08T03:22:28.017Z,3.57
2023-06-08T03:25:00.756Z,3.20
2023-06-08T03:27:33.043Z,3.30
2023-06-08T03:30:03.679Z,2.83
2023-06-08T03:32:35.168Z,3.27
2023-06-08T03:35:06.155Z,3.40
2023-06-08T03:37:36.826Z,3.40
2023-06-08T03:40:08.234Z,3.30
2023-06-08T03:42:40.311Z,3.30
2023-06-08T03:45:11.458Z,3.20
2023-06-08T03:47:42.016Z,3.40
2023-06-08T03:50:13.865Z,2.40
2023-06-08T03:52:45.254Z,3.07
2023-06-08T03:55:15.823Z,2.97
2023-06-08T03:57:48.493Z,2.70
2023-06-08T04:00:19.499Z,3.53
2023-06-08T04:02:50.304Z,2.93
2023-06-08T04:05:21.000Z,3.27
2023-06-08T04:07:53.294Z,3.40
2023-06-08T04:10:24.195Z,3.13
2023-06-08T04:12:56.474Z,3.60
2023-06-08T04:15:27.618Z,3.40
2023-06-08T04:17:58.148Z,3.20
2023-06-08T04:20:29.363Z,3.60
2023-06-08T04:23:00.193Z,2.93
2023-06-08T04:25:30.742Z,3.13
2023-06-08T04:28:03.068Z,3.10
2023-06-08T04:30:33.608Z,3.30
2023-06-08T04:33:04.266Z,3.63
2023-06-08T04:35:35.107Z,3.00
2023-06-08T04:38:05.797Z,3.30
2023-06-08T04:40:36.600Z,3.30
2023-06-08T04:43:10.710Z,3.00
2023-06-08T04:45:41.286Z,3.23
2023-06-08T04:48:13.455Z,3.03
2023-06-08T04:50:47.443Z,3.00
2023-06-08T04:53:18.472Z,3.43
2023-06-08T04:55:49.005Z,3.23
2023-06-08T04:58:21.311Z,2.80
2023-06-08T05:00:52.508Z,3.00
2023-06-08T05:03:23.510Z,2.87
2023-06-08T05:05:54.519Z,3.27
2023-06-08T05:08:25.200Z,2.57
2023-06-08T05:10:55.739Z,3.47
2023-06-08T05:13:27.981Z,3.10
2023-06-08T05:16:00.648Z,3.13
2023-06-08T05:18:32.271Z,3.20
2023-06-08T05:21:02.793Z,2.73
2023-06-08T05:23:33.326Z,3.23
2023-06-08T05:26:03.998Z,2.90
2023-06-08T05:28:36.169Z,3.03
2023-06-08T05:31:06.660Z,2.87
2023-06-08T05:33:37.349Z,2.60
2023-06-08T05:36:08.934Z,2.77
2023-06-08T05:38:39.499Z,2.40
2023-06-08T05:41:19.078Z,2.80
2023-06-08T05:43:51.284Z,2.30
2023-06-08T05:46:21.820Z,3.23
2023-06-08T05:48:52.393Z,3.00
2023-06-08T05:51:23.013Z,3.30
2023-06-08T05:53:53.718Z,3.23
2023-06-08T05:56:24.254Z,3.30
2023-06-08T05:58:56.512Z,3.13
2023-06-08T06:01:27.214Z,2.97
2023-06-08T06:03:57.976Z,3.70
2023-06-08T06:06:28.597Z,3.57
2023-06-08T06:08:59.088Z,3.30
2023-06-08T06:11:29.594Z,4.30
2023-06-08T06:14:02.602Z,3.13
2023-06-08T06:16:33.258Z,4.43
2023-06-08T06:19:04.161Z,3.53
2023-06-08T06:21:34.798Z,3.30
2023-06-08T06:24:05.525Z,3.80
2023-06-08T06:26:36.165Z,3.37
2023-06-08T06:29:08.217Z,3.80
2023-06-08T06:31:38.885Z,3.13
2023-06-08T06:34:09.518Z,3.53
2023-06-08T06:36:40.364Z,3.40
2023-06-08T06:39:13.723Z,3.37
2023-06-08T06:41:44.773Z,3.20
2023-06-08T06:44:16.993Z,3.50
2023-06-08T06:46:47.681Z,3.10
2023-06-08T06:49:18.188Z,3.40
2023-06-08T06:51:48.745Z,2.87
2023-06-08T06:54:19.293Z,2.70
2023-06-08T06:56:49.926Z,3.00
2023-06-08T06:59:22.733Z,3.30
2023-06-08T07:01:53.404Z,2.87
2023-06-08T07:04:26.671Z,3.00
2023-06-08T07:06:58.415Z,3.40
2023-06-08T07:09:29.025Z,3.10
2023-06-08T07:12:14.422Z,3.73
2023-06-08T07:14:48.513Z,3.20
2023-06-08T07:17:19.193Z,2.70
2023-06-08T07:19:50.689Z,3.60
2023-06-08T07:22:48.574Z,3.27
2023-06-08T07:25:32.857Z,3.47
2023-06-08T07:28:06.575Z,3.77
2023-06-08T07:30:39.447Z,3.00
2023-06-08T07:33:10.633Z,2.95
2023-06-08T07:35:41.158Z,2.95
2023-06-08T07:38:12.341Z,2.70
2023-06-08T07:40:42.767Z,2.60
2023-06-08T07:43:13.290Z,2.50
2023-06-08T07:45:45.572Z,2.70
2023-06-08T07:48:16.117Z,2.97
2023-06-08T07:50:46.667Z,2.30
2023-06-08T07:53:17.947Z,3.00
2023-06-08T07:55:48.489Z,2.78
2023-06-08T07:58:19.007Z,3.05
2023-06-08T08:00:51.044Z,3.72
2023-06-08T08:03:21.659Z,3.00
2023-06-08T08:05:52.361Z,3.28
2023-06-08T08:08:23.141Z,2.83
2023-06-08T08:10:53.605Z,3.75
2023-06-08T08:13:24.198Z,3.55
2023-06-08T08:15:56.640Z,3.20
2023-06-08T08:18:27.354Z,3.40
2023-06-08T08:20:57.915Z,3.55
2023-06-08T08:23:28.611Z,3.33
2023-06-08T08:25:59.359Z,2.95
2023-06-08T08:28:31.820Z,3.00
2023-06-08T08:31:04.384Z,3.13
2023-06-08T08:33:35.060Z,3.42
2023-06-08T08:36:05.792Z,3.17
2023-06-08T08:38:36.542Z,3.40
2023-06-08T08:41:10.961Z,3.20
2023-06-08T08:43:51.108Z,2.80
2023-06-08T08:46:27.240Z,2.58
2023-06-08T08:49:04.547Z,3.40
2023-06-08T08:51:40.366Z,3.35
2023-06-08T08:54:12.029Z,3.63
2023-06-08T08:56:43.049Z,3.60
2023-06-08T08:59:15.752Z,4.00
2023-06-08T09:01:48.361Z,2.95
2023-06-08T09:04:23.091Z,3.20
2023-06-08T09:06:57.591Z,3.50
2023-06-08T09:09:31.398Z,3.42
2023-06-08T09:12:02.736Z,2.67
2023-06-08T09:14:34.174Z,3.17
2023-06-08T09:17:09.225Z,2.80
2023-06-08T09:19:54.928Z,3.45
2023-06-08T09:22:32.934Z,3.50
2023-06-08T09:25:07.055Z,4.07
2023-06-08T09:27:39.579Z,3.58
2023-06-08T09:30:33.518Z,3.20
2023-06-08T09:33:50.848Z,3.60
2023-06-08T09:36:25.750Z,2.85
2023-06-08T09:39:06.486Z,3.58
2023-06-08T09:41:39.248Z,4.10
2023-06-08T09:44:23.294Z,3.50
2023-06-08T09:46:54.709Z,3.80
2023-06-08T09:50:13.812Z,3.80
2023-06-08T09:52:55.772Z,4.38
2023-06-08T09:56:14.257Z,4.07
2023-06-08T09:59:43.831Z,4.47
2023-06-08T10:02:23.811Z,3.83
2023-06-08T10:05:00.207Z,4.03
2023-06-08T10:07:39.255Z,4.20
2023-06-08T10:10:21.622Z,3.63
2023-06-08T10:12:56.059Z,5.53
2023-06-08T10:15:27.890Z,4.80
2023-06-08T10:18:04.607Z,4.20
2023-06-08T10:20:43.457Z,3.88
2023-06-08T10:23:18.944Z,3.97
2023-06-08T10:25:52.905Z,4.93
2023-06-08T10:28:30.271Z,3.88
2023-06-08T10:31:05.443Z,4.88
2023-06-08T10:33:44.804Z,5.43
2023-06-08T10:36:17.267Z,5.28
2023-06-08T10:39:14.262Z,4.60
2023-06-08T10:41:49.436Z,5.88
2023-06-08T10:44:31.931Z,5.50
2023-06-08T10:47:05.131Z,5.38
2023-06-08T10:49:38.946Z,6.43
2023-06-08T10:52:12.869Z,5.60
2023-06-08T10:55:32.636Z,6.60
2023-06-08T10:58:10.045Z,6.20
2023-06-08T11:00:50.090Z,6.32
2023-06-08T11:03:24.346Z,6.30
2023-06-08T11:05:57.191Z,6.68
2023-06-08T11:08:30.900Z,6.18
2023-06-08T11:11:02.606Z,6.35
2023-06-08T11:13:36.313Z,7.00
2023-06-08T11:16:08.432Z,6.18
2023-06-08T11:18:39.709Z,5.57
2023-06-08T11:21:13.896Z,6.00
2023-06-08T11:23:47.156Z,6.53
2023-06-08T11:26:19.094Z,5.57
2023-06-08T11:28:51.416Z,7.03
2023-06-08T11:31:24.876Z,6.28
2023-06-08T11:33:58.455Z,5.10
2023-06-08T11:36:30.425Z,6.40
2023-06-08T11:39:05.456Z,5.53
2023-06-08T11:41:36.734Z,6.40
2023-06-08T11:44:08.868Z,7.25
2023-06-08T11:46:41.334Z,6.85
2023-06-08T11:49:13.487Z,6.05
2023-06-08T11:51:51.721Z,6.57
2023-06-08T11:54:25.010Z,7.20
2023-06-08T11:56:56.758Z,7.38
2023-06-08T11:59:30.148Z,8.18
2023-06-08T12:02:03.441Z,7.70
2023-06-08T12:04:35.538Z,7.03
2023-06-08T12:07:36.758Z,7.05
2023-06-08T12:10:11.391Z,7.50
2023-06-08T12:12:44.086Z,8.23
2023-06-08T12:15:20.809Z,8.18
2023-06-08T12:17:52.826Z,6.80
2023-06-08T12:20:24.331Z,8.23
2023-06-08T12:22:55.663Z,8.32
2023-06-08T12:25:28.886Z,7.55
2023-06-08T12:28:03.658Z,7.47
2023-06-08T12:30:35.448Z,7.40
2023-06-08T12:33:08.257Z,6.88
2023-06-08T12:35:39.770Z,6.82
2023-06-08T12:38:11.389Z,6.57
2023-06-08T12:40:49.574Z,6.18
2023-06-08T12:43:21.677Z,6.03
2023-06-08T12:45:54.227Z,6.28
2023-06-08T12:48:25.942Z,6.22
2023-06-08T12:50:59.673Z,5.75
2023-06-08T12:53:32.322Z,5.60
2023-06-08T12:56:05.267Z,5.82
2023-06-08T12:58:36.882Z,6.00
2023-06-08T13:01:08.422Z,5.70
2023-06-08T13:03:41.966Z,5.47
2023-06-08T13:06:13.526Z,5.63
2023-06-08T13:08:45.056Z,4.63
2023-06-08T13:11:18.880Z,4.20
2023-06-08T13:13:50.905Z,5.38
2023-06-08T13:16:22.587Z,5.38
2023-06-08T13:18:54.327Z,4.72
2023-06-08T13:21:25.826Z,4.93
2023-06-08T13:23:57.689Z,5.20
2023-06-08T13:26:31.175Z,5.35
2023-06-08T13:29:05.157Z,5.47
2023-06-08T13:31:36.960Z,4.95
2023-06-08T13:34:11.963Z,5.53
2023-06-08T13:36:44.534Z,5.78
2023-06-08T13:39:16.036Z,4.35
2023-06-08T13:41:49.399Z,4.22
2023-06-08T13:44:21.218Z,4.00
2023-06-08T13:46:52.825Z,3.70
2023-06-08T13:49:24.379Z,4.45
2023-06-08T13:51:58.778Z,5.35
2023-06-08T13:54:34.026Z,4.88
2023-06-08T13:57:08.057Z,4.85
2023-06-08T13:59:39.592Z,5.18
2023-06-08T14:02:10.980Z,4.55
2023-06-08T14:04:43.226Z,4.43
2023-06-08T14:07:14.812Z,5.00
2023-06-08T14:09:48.294Z,4.50
2023-06-08T14:12:21.897Z,4.55
2023-06-08T14:14:53.465Z,5.00
2023-06-08T14:17:24.935Z,5.50
2023-06-08T14:19:56.602Z,4.93
2023-06-08T14:22:28.056Z,5.18
2023-06-08T14:24:59.973Z,4.57
2023-06-08T14:27:33.358Z,4.25
2023-06-08T14:30:05.414Z,4.13
2023-06-08T14:32:37.462Z,4.70
2023-06-08T14:35:10.444Z,4.45
2023-06-08T14:37:42.017Z,4.10
2023-06-08T14:40:14.645Z,4.20
2023-06-08T14:42:50.911Z,4.20
2023-06-08T14:45:22.558Z,3.75
2023-06-08T14:47:53.474Z,3.58
2023-06-08T14:50:24.081Z,3.42
2023-06-08T14:52:54.718Z,3.95
2023-06-08T14:55:25.831Z,4.28
2023-06-08T14:58:00.296Z,3.95
2023-06-08T15:00:30.914Z,3.40
2023-06-08T15:03:01.692Z,3.33
2023-06-08T15:05:32.519Z,3.90
2023-06-08T15:08:03.118Z,3.90
2023-06-08T15:10:37.314Z,3.70
2023-06-08T15:13:10.180Z,4.05
2023-06-08T15:15:42.076Z,3.78
2023-06-08T15:18:15.261Z,3.20
2023-06-08T15:20:51.036Z,4.22
2023-06-08T15:23:21.563Z,3.47
2023-06-08T15:25:52.202Z,3.38
2023-06-08T15:28:24.824Z,3.78
2023-06-08T15:30:55.675Z,3.47
2023-06-08T15:33:29.351Z,4.00
2023-06-08T15:36:00.078Z,3.20
2023-06-08T15:38:32.309Z,4.72
2023-06-08T15:41:03.949Z,4.10
2023-06-08T15:43:37.884Z,4.40
2023-06-08T15:46:09.239Z,3.78
2023-06-08T15:48:39.959Z,3.67
2023-06-08T15:51:16.658Z,3.83
2023-06-08T15:53:47.612Z,4.55
2023-06-08T15:56:18.372Z,3.55
2023-06-08T15:58:51.655Z,3.63
2023-06-08T16:01:23.063Z,3.60
2023-06-08T16:03:53.800Z,4.03
2023-06-08T16:06:27.129Z,3.85
2023-06-08T16:08:57.810Z,3.55
2023-06-08T16:11:29.617Z,3.50
2023-06-08T16:14:02.727Z,3.78
2023-06-08T16:16:33.335Z,3.80
2023-06-08T16:19:05.270Z,4.50
2023-06-08T16:21:37.711Z,4.07
2023-06-08T16:24:27.914Z,3.53
2023-06-08T16:27:02.283Z,3.40
2023-06-08T16:29:35.606Z,4.00
2023-06-08T16:32:07.361Z,3.88
2023-06-08T16:34:38.057Z,4.43
2023-06-08T16:37:14.813Z,3.63
2023-06-08T16:39:45.884Z,3.50
2023-06-08T16:42:16.728Z,3.30
2023-06-08T16:44:49.192Z,2.88
2023-06-08T16:47:20.336Z,4.03
2023-06-08T16:49:50.883Z,3.42
2023-06-08T16:52:27.559Z,3.30
2023-06-08T16:54:58.231Z,3.97
2023-06-08T16:57:30.233Z,3.05
2023-06-08T17:00:05.652Z,3.30
2023-06-08T17:02:37.238Z,3.08
2023-06-08T17:05:08.772Z,3.08
2023-06-08T17:07:40.920Z,3.30
2023-06-08T17:10:14.258Z,3.47
2023-06-08T17:12:47.803Z,3.85
2023-06-08T17:15:23.425Z,3.50
2023-06-08T17:17:54.012Z,4.50
2023-06-08T17:20:24.997Z,3.63
2023-06-08T17:22:55.622Z,3.85
2023-06-08T17:25:26.282Z,3.15
2023-06-08T17:27:57.762Z,3.80
2023-06-08T17:30:32.236Z,3.90
2023-06-08T17:33:03.297Z,3.97
2023-06-08T17:35:34.168Z,3.75
2023-06-08T17:38:07.804Z,3.40
2023-06-08T17:40:39.423Z,4.60
2023-06-08T17:43:10.570Z,4.35
2023-06-08T17:45:42.871Z,4.03
2023-06-08T17:48:13.694Z,4.60
2023-06-08T17:50:49.335Z,5.35
2023-06-08T17:53:21.989Z,3.80
2023-06-08T17:55:55.536Z,3.97
2023-06-08T17:58:29.664Z,3.60
2023-06-08T18:01:02.083Z,3.70
2023-06-08T18:03:35.684Z,4.80
2023-06-08T18:06:23.374Z,4.90
2023-06-08T18:08:57.164Z,4.00
2023-06-08T18:11:31.073Z,4.90
2023-06-08T18:14:04.273Z,3.38
2023-06-08T18:16:37.891Z,3.08
2023-06-08T18:19:10.148Z,3.55
2023-06-08T18:21:49.664Z,3.38
2023-06-08T18:24:23.791Z,3.92
2023-06-08T18:26:58.262Z,3.33
2023-06-08T18:29:29.340Z,2.78
2023-06-08T18:32:07.906Z,3.08
2023-06-08T18:34:40.857Z,2.60
2023-06-08T18:37:12.593Z,3.72
2023-06-08T18:39:57.954Z,3.42
2023-06-08T18:42:29.984Z,4.43
2023-06-08T18:45:03.344Z,3.28
2023-06-08T18:47:36.260Z,5.20
2023-06-08T18:50:13.066Z,3.97
2023-06-08T18:52:46.825Z,3.90
2023-06-08T18:55:21.625Z,3.72
2023-06-08T18:57:55.142Z,5.43
2023-06-08T19:00:25.649Z,4.30
2023-06-08T19:02:58.862Z,3.72
2023-06-08T19:05:29.497Z,3.20
2023-06-08T19:08:01.018Z,3.25
2023-06-08T19:10:31.667Z,3.00
2023-06-08T19:13:02.235Z,3.33
2023-06-08T19:15:32.677Z,2.80
2023-06-08T19:18:04.867Z,2.97
2023-06-08T19:20:35.404Z,2.38
2023-06-08T19:23:05.894Z,2.50
2023-06-08T19:25:36.390Z,3.42
2023-06-08T19:28:06.993Z,3.67
2023-06-08T19:30:37.611Z,2.90
2023-06-08T19:33:09.719Z,2.38
2023-06-08T19:35:40.298Z,2.40
2023-06-08T19:38:10.853Z,2.40
2023-06-08T19:40:41.325Z,2.17
2023-06-08T19:43:11.717Z,3.63
2023-06-08T19:45:42.308Z,2.60
2023-06-08T19:48:14.485Z,2.45
2023-06-08T19:50:45.063Z,2.53
2023-06-08T19:53:15.516Z,2.65
2023-06-08T19:55:48.549Z,2.75
2023-06-08T19:58:18.942Z,2.42
2023-06-08T20:00:52.156Z,2.42
2023-06-08T20:03:24.751Z,5.30
2023-06-08T20:05:55.537Z,3.17
2023-06-08T20:08:28.644Z,3.00
2023-06-08T20:10:59.741Z,4.15
2023-06-08T20:13:30.406Z,2.45
2023-06-08T20:16:01.040Z,3.13
2023-06-08T20:18:33.165Z,2.70
2023-06-08T20:21:03.597Z,4.35
2023-06-08T20:23:34.870Z,2.33
2023-06-08T20:26:05.354Z,3.40
2023-06-08T20:28:38.903Z,2.80
2023-06-08T20:31:09.528Z,2.20
2023-06-08T20:33:41.673Z,3.42
2023-06-08T20:36:12.261Z,4.47
2023-06-08T20:38:43.911Z,2.55
2023-06-08T20:41:14.523Z,2.78
2023-06-08T20:43:45.074Z,3.60
2023-06-08T20:46:15.644Z,2.90
2023-06-08T20:48:47.925Z,3.83
2023-06-08T20:51:19.035Z,5.10
2023-06-08T20:53:49.660Z,3.25
2023-06-08T20:56:20.254Z,3.13
2023-06-08T20:58:50.772Z,3.20
2023-06-08T21:01:21.529Z,2.42
2023-06-08T21:03:53.895Z,2.80
2023-06-08T21:06:24.440Z,2.42
2023-06-08T21:08:54.982Z,2.42
2023-06-08T21:11:25.720Z,3.95
2023-06-08T21:13:56.488Z,4.13
2023-06-08T21:16:27.096Z,2.83
2023-06-08T21:18:59.454Z,3.67
2023-06-08T21:21:30.438Z,3.22
2023-06-08T21:24:01.017Z,5.43
2023-06-08T21:26:31.847Z,3.20
2023-06-08T21:29:02.328Z,2.90
2023-06-08T21:31:33.050Z,2.47
2023-06-08T21:34:05.241Z,2.83
2023-06-08T21:36:35.776Z,2.80
2023-06-08T21:39:06.746Z,3.08
2023-06-08T21:41:37.448Z,3.05
2023-06-08T21:44:08.215Z,3.70
2023-06-08T21:46:38.721Z,2.60
2023-06-08T21:49:11.584Z,2.67
2023-06-08T21:51:42.450Z,3.00
2023-06-08T21:54:13.175Z,2.47
2023-06-08T21:56:44.004Z,2.60
2023-06-08T21:59:14.575Z,3.72
2023-06-08T22:01:45.234Z,2.75
2023-06-08T22:04:17.689Z,3.00
2023-06-08T22:06:48.516Z,3.17
2023-06-08T22:09:19.551Z,2.75
2023-06-08T22:11:51.018Z,2.70
2023-06-08T22:14:21.429Z,2.92
2023-06-08T22:16:54.424Z,3.45
2023-06-08T22:19:26.549Z,3.00
2023-06-08T22:21:57.095Z,3.70
2023-06-08T22:24:27.776Z,2.90
2023-06-08T22:26:58.317Z,2.40
2023-06-08T22:29:28.902Z,2.40
2023-06-08T22:31:59.401Z,3.60
2023-06-08T22:34:31.563Z,2.75
2023-06-08T22:37:02.187Z,3.83
2023-06-08T22:39:34.930Z,2.33
2023-06-08T22:42:06.198Z,2.78
2023-06-08T22:44:36.635Z,3.60
2023-06-08T22:47:08.027Z,2.67
2023-06-08T22:49:41.226Z,2.90
2023-06-08T22:52:15.606Z,2.40
2023-06-08T22:54:46.841Z,2.38
2023-06-08T22:57:17.463Z,2.60
2023-06-08T22:59:47.977Z,2.03
2023-06-08T23:02:18.672Z,2.08
2023-06-08T23:04:50.815Z,2.38
2023-06-08T23:07:22.361Z,2.30
2023-06-08T23:09:54.791Z,2.03
2023-06-08T23:12:25.258Z,1.70
2023-06-08T23:14:55.715Z,1.73
2023-06-08T23:17:27.307Z,1.80
2023-06-08T23:20:00.282Z,1.85
2023-06-08T23:22:31.358Z,1.58
2023-06-08T23:25:02.326Z,1.77
2023-06-08T23:27:32.880Z,1.35
2023-06-08T23:30:03.903Z,1.67
2023-06-08T23:32:36.167Z,1.60
2023-06-08T23:35:12.158Z,1.88
2023-06-08T23:37:43.896Z,1.50
2023-06-08T23:40:16.922Z,1.70
2023-06-08T23:42:48.386Z,1.50
2023-06-08T23:45:20.749Z,1.90
2023-06-08T23:47:54.073Z,1.60
2023-06-08T23:50:27.574Z,1.48
2023-06-08T23:52:59.356Z,1.38
2023-06-08T23:55:30.871Z,1.60
2023-06-08T23:58:03.389Z,1.30
